createdAt,value
2018-03-11T00:00:36.956Z,14
2018-03-11T00:01:42.129Z,14.1
2018-03-11T00:02:47.981Z,14.1
2018-03-11T00:03:54.254Z,14.1
2018-03-11T00:05:00.081Z,14.1
2018-03-11T00:06:05.724Z,14.2
2018-03-11T00:07:12.162Z,14.2
2018-03-11T00:08:17.785Z,14.1
2018-03-11T00:09:23.515Z,14
2018-03-11T00:10:29.365Z,14.1
2018-03-11T00:11:35.706Z,14.2
2018-03-11T00:12:41.876Z,14.2
2018-03-11T00:13:47.934Z,14.1
2018-03-11T00:14:54.389Z,14.3
2018-03-11T00:16:00.406Z,14.4
2018-03-11T00:17:05.530Z,14.3
2018-03-11T00:18:12.066Z,14.1
2018-03-11T00:19:18.860Z,14.1
2018-03-11T00:20:23.813Z,14.1
2018-03-11T00:21:31.167Z,14.1
2018-03-11T00:22:37.072Z,14.2
2018-03-11T00:23:42.550Z,14.3
2018-03-11T00:24:47.874Z,14.4
2018-03-11T00:25:53.785Z,14.4
2018-03-11T00:27:00.109Z,14.3
2018-03-11T00:28:06.708Z,14.3
2018-03-11T00:29:13.978Z,14.3
2018-03-11T00:30:20.008Z,14.6
2018-03-11T00:31:27.461Z,14.7
2018-03-11T00:32:33.838Z,14.5
2018-03-11T00:33:39.609Z,14.6
2018-03-11T00:34:45.661Z,14.5
2018-03-11T00:35:52.716Z,14.2
2018-03-11T00:36:59.214Z,14.2
2018-03-11T00:38:06.140Z,14.2
2018-03-11T00:39:12.553Z,14.2
2018-03-11T00:40:19.520Z,14.2
2018-03-11T00:41:26.669Z,14.1
2018-03-11T00:42:33.259Z,14.2
2018-03-11T00:43:40.140Z,14.2
2018-03-11T00:44:46.349Z,14.2
2018-03-11T00:45:54.298Z,14.3
2018-03-11T00:47:02.709Z,14.3
2018-03-11T00:49:20.656Z,14.2
2018-03-11T00:50:27.790Z,14.2
2018-03-11T00:51:35.536Z,14.2
2018-03-11T00:52:42.902Z,14.2
2018-03-11T00:53:50.367Z,14.2
2018-03-11T00:54:57.213Z,14.2
2018-03-11T00:56:05.137Z,14.3
2018-03-11T00:57:11.461Z,14.3
2018-03-11T00:58:18.731Z,14.4
2018-03-11T00:59:24.951Z,14.4
2018-03-11T01:00:32.076Z,14.3
2018-03-11T01:01:40.109Z,14.3
2018-03-11T01:02:49.175Z,14.4
2018-03-11T01:03:56.260Z,14.4
2018-03-11T01:05:03.731Z,14.5
2018-03-11T01:06:10.816Z,14.2
2018-03-11T01:07:18.103Z,14.3
2018-03-11T01:09:38.605Z,14.2
2018-03-11T01:10:45.312Z,14.2
2018-03-11T01:11:51.625Z,14.2
2018-03-11T01:12:58.619Z,14.2
2018-03-11T01:14:05.737Z,14.1
2018-03-11T01:15:13.636Z,14.3
2018-03-11T01:16:20.412Z,14.4
2018-03-11T01:17:27.375Z,14.2
2018-03-11T01:18:34.113Z,14.2
2018-03-11T01:19:41.681Z,14.1
2018-03-11T01:20:48.663Z,14.1
2018-03-11T01:21:55.517Z,14.1
2018-03-11T01:23:01.777Z,14.2
2018-03-11T01:24:09.458Z,14.2
2018-03-11T01:25:15.389Z,14.3
2018-03-11T01:26:21.492Z,14.2
2018-03-11T01:27:27.585Z,14.1
2018-03-11T01:28:34.541Z,14.1
2018-03-11T01:30:03.681Z,14.1
2018-03-11T01:31:11.248Z,14.1
2018-03-11T01:32:17.515Z,14
2018-03-11T01:33:23.413Z,14
2018-03-11T01:34:29.887Z,14
2018-03-11T01:35:35.798Z,14
2018-03-11T01:36:41.633Z,14
2018-03-11T01:37:48.406Z,14
2018-03-11T01:40:06.303Z,14
2018-03-11T01:41:13.035Z,14
2018-03-11T01:42:19.092Z,14
2018-03-11T01:43:24.940Z,14.1
2018-03-11T01:44:30.636Z,14
2018-03-11T01:45:36.312Z,14.1
2018-03-11T01:46:42.423Z,14.1
2018-03-11T01:47:48.906Z,14.1
2018-03-11T01:48:54.791Z,14
2018-03-11T01:49:59.995Z,14
2018-03-11T01:51:07.348Z,14
2018-03-11T01:52:12.784Z,14
2018-03-11T01:53:18.053Z,14
2018-03-11T01:54:23.903Z,14
2018-03-11T01:55:29.601Z,13.8
2018-03-11T01:56:35.457Z,13.9
2018-03-11T01:57:41.307Z,14
2018-03-11T01:58:46.832Z,14
2018-03-11T01:59:52.062Z,14.1
2018-03-11T02:00:57.427Z,14
2018-03-11T02:02:02.889Z,14
2018-03-11T02:03:07.385Z,13.9
2018-03-11T02:04:11.711Z,13.9
2018-03-11T02:05:17.012Z,14.1
2018-03-11T02:06:23.279Z,14
2018-03-11T02:07:27.788Z,14
2018-03-11T02:08:33.273Z,14
2018-03-11T02:09:38.344Z,13.9
2018-03-11T02:10:43.762Z,13.9
2018-03-11T02:11:48.949Z,13.8
2018-03-11T02:12:53.781Z,13.9
2018-03-11T02:13:58.728Z,13.9
2018-03-11T02:15:03.528Z,13.9
2018-03-11T02:16:08.808Z,14
2018-03-11T02:17:14.037Z,13.9
2018-03-11T02:18:19.137Z,14
2018-03-11T02:19:28.241Z,13.9
2018-03-11T02:20:34.217Z,14
2018-03-11T02:21:39.745Z,14
2018-03-11T02:22:45.193Z,14.1
2018-03-11T02:23:49.834Z,13.9
2018-03-11T02:24:56.538Z,13.9
2018-03-11T02:26:01.661Z,13.9
2018-03-11T02:27:07.700Z,13.8
2018-03-11T02:28:13.505Z,13.9
2018-03-11T02:29:18.182Z,13.8
2018-03-11T02:30:23.003Z,13.8
2018-03-11T02:31:27.971Z,13.9
2018-03-11T02:32:32.475Z,13.9
2018-03-11T02:33:37.188Z,13.8
2018-03-11T02:34:42.750Z,13.8
2018-03-11T02:35:46.927Z,13.8
2018-03-11T02:36:52.209Z,13.8
2018-03-11T02:37:56.448Z,14.1
2018-03-11T02:39:02.217Z,14
2018-03-11T02:40:06.421Z,13.9
2018-03-11T02:41:10.513Z,13.9
2018-03-11T02:42:16.653Z,13.9
2018-03-11T02:43:21.666Z,13.9
2018-03-11T02:44:26.218Z,14.1
2018-03-11T02:45:31.992Z,14.3
2018-03-11T02:46:36.262Z,14.2
2018-03-11T02:47:40.835Z,14.2
2018-03-11T02:48:46.487Z,14.3
2018-03-11T02:49:52.218Z,14.3
2018-03-11T02:50:57.003Z,14.1
2018-03-11T02:52:02.223Z,13.9
2018-03-11T02:53:07.268Z,13.9
2018-03-11T02:54:11.803Z,14.1
2018-03-11T02:55:17.055Z,14.1
2018-03-11T02:56:21.649Z,14
2018-03-11T02:57:26.635Z,14
2018-03-11T02:58:30.833Z,14.1
2018-03-11T02:59:35.241Z,14.1
2018-03-11T03:00:40.239Z,14.3
2018-03-11T03:01:45.271Z,14.2
2018-03-11T03:02:49.642Z,14.1
2018-03-11T03:03:53.241Z,13.9
2018-03-11T03:04:58.507Z,14
2018-03-11T03:06:03.127Z,14
2018-03-11T03:07:07.131Z,13.8
2018-03-11T03:08:12.028Z,13.9
2018-03-11T03:09:16.547Z,14
2018-03-11T03:10:20.374Z,13.9
2018-03-11T03:11:25.356Z,13.8
2018-03-11T03:12:29.567Z,13.7
2018-03-11T03:13:34.493Z,13.8
2018-03-11T03:14:38.596Z,13.8
2018-03-11T03:15:42.663Z,13.7
2018-03-11T03:16:47.480Z,13.8
2018-03-11T03:17:52.388Z,13.9
2018-03-11T03:18:56.441Z,13.8
2018-03-11T03:20:04.901Z,13.9
2018-03-11T03:21:09.179Z,13.9
2018-03-11T03:22:13.457Z,13.9
2018-03-11T03:23:17.877Z,14.1
2018-03-11T03:24:21.875Z,14
2018-03-11T03:25:26.238Z,14
2018-03-11T03:26:30.538Z,13.9
2018-03-11T03:27:34.514Z,14
2018-03-11T03:28:40.865Z,14
2018-03-11T03:29:45.722Z,14
2018-03-11T03:30:50.321Z,14
2018-03-11T03:31:55.171Z,13.9
2018-03-11T03:32:59.268Z,13.8
2018-03-11T03:34:04.074Z,13.8
2018-03-11T03:35:07.763Z,13.9
2018-03-11T03:36:13.144Z,13.9
2018-03-11T03:37:17.408Z,13.8
2018-03-11T03:38:21.727Z,13.6
2018-03-11T03:39:25.703Z,13.7
2018-03-11T03:42:56.514Z,13.7
2018-03-11T03:44:00.968Z,13.5
2018-03-11T03:45:04.377Z,13.6
2018-03-11T03:46:08.242Z,13.7
2018-03-11T03:47:13.633Z,13.6
2018-03-11T03:48:17.606Z,13.7
2018-03-11T03:49:21.151Z,13.8
2018-03-11T03:50:25.631Z,13.8
2018-03-11T03:51:30.941Z,13.8
2018-03-11T03:52:34.586Z,13.7
2018-03-11T03:53:39.293Z,13.7
2018-03-11T03:54:42.865Z,13.4
2018-03-11T03:55:46.525Z,13.7
2018-03-11T03:56:50.189Z,13.6
2018-03-11T03:57:54.076Z,13.8
2018-03-11T03:58:57.753Z,13.7
2018-03-11T04:00:02.276Z,13.7
2018-03-11T04:01:06.276Z,13.7
2018-03-11T04:03:21.652Z,13.6
2018-03-11T04:04:25.728Z,13.8
2018-03-11T04:05:29.585Z,13.9
2018-03-11T04:06:34.866Z,13.8
2018-03-11T04:07:38.758Z,13.8
2018-03-11T04:08:42.941Z,13.8
2018-03-11T04:09:48.004Z,13.8
2018-03-11T04:10:53.453Z,13.8
2018-03-11T04:11:58.911Z,13.9
2018-03-11T04:13:02.734Z,13.8
2018-03-11T04:14:06.844Z,14.1
2018-03-11T04:15:11.654Z,13.8
2018-03-11T04:16:15.751Z,13.9
2018-03-11T04:17:21.076Z,13.8
2018-03-11T04:18:25.418Z,13.8
2018-03-11T04:19:30.930Z,13.8
2018-03-11T04:20:35.665Z,13.6
2018-03-11T04:21:39.614Z,13.6
2018-03-11T04:22:43.261Z,13.7
2018-03-11T04:23:48.017Z,13.7
2018-03-11T04:24:51.931Z,13.8
2018-03-11T04:25:56.589Z,13.8
2018-03-11T04:27:01.210Z,13.7
2018-03-11T04:28:06.661Z,13.6
2018-03-11T04:29:11.453Z,13.6
2018-03-11T04:30:15.338Z,13.6
2018-03-11T04:31:18.791Z,13.6
2018-03-11T04:32:23.363Z,13.5
2018-03-11T04:33:28.586Z,13.5
2018-03-11T04:34:33.300Z,13.4
2018-03-11T04:35:37.989Z,13.4
2018-03-11T04:36:42.613Z,13.5
2018-03-11T04:37:49.105Z,13.4
2018-03-11T04:38:52.772Z,13.4
2018-03-11T04:39:58.328Z,13.4
2018-03-11T04:41:02.995Z,13.4
2018-03-11T04:42:07.765Z,13.4
2018-03-11T04:43:12.643Z,13.4
2018-03-11T04:44:17.203Z,13.4
2018-03-11T04:45:21.312Z,13.3
2018-03-11T04:46:26.147Z,13.3
2018-03-11T04:47:30.750Z,13.2
2018-03-11T04:48:35.301Z,13.1
2018-03-11T04:49:38.847Z,13.3
2018-03-11T04:50:42.600Z,13.3
2018-03-11T04:51:51.336Z,13.4
2018-03-11T04:52:55.549Z,13.4
2018-03-11T04:53:59.816Z,13.4
2018-03-11T04:55:05.341Z,13.3
2018-03-11T04:56:09.657Z,13.4
2018-03-11T04:57:13.047Z,13.4
2018-03-11T04:58:16.405Z,13.3
2018-03-11T04:59:20.002Z,13.5
2018-03-11T05:00:24.134Z,13.7
2018-03-11T05:01:28.061Z,13.7
2018-03-11T05:02:31.477Z,13.6
2018-03-11T05:03:35.679Z,13.4
2018-03-11T05:04:39.594Z,13.3
2018-03-11T05:05:42.847Z,13.4
2018-03-11T05:06:47.228Z,13.4
2018-03-11T05:07:50.812Z,13.4
2018-03-11T05:08:54.968Z,13.5
2018-03-11T05:09:58.431Z,13.4
2018-03-11T05:11:01.787Z,13.3
2018-03-11T05:12:05.804Z,13.4
2018-03-11T05:13:09.768Z,13.3
2018-03-11T05:14:13.098Z,13.2
2018-03-11T05:15:16.680Z,13.2
2018-03-11T05:16:20.067Z,13.3
2018-03-11T05:17:23.562Z,13.1
2018-03-11T05:18:27.550Z,13.1
2018-03-11T05:19:32.087Z,13.1
2018-03-11T05:20:36.062Z,12.9
2018-03-11T05:21:39.368Z,12.9
2018-03-11T05:22:42.763Z,13
2018-03-11T05:23:46.474Z,12.9
2018-03-11T05:24:50.540Z,12.8
2018-03-11T05:25:59.225Z,12.9
2018-03-11T05:27:02.984Z,12.8
2018-03-11T05:28:08.458Z,12.7
2018-03-11T05:29:13.299Z,12.6
2018-03-11T05:30:16.804Z,12.6
2018-03-11T05:31:21.596Z,12.2
2018-03-11T05:32:26.640Z,12.3
2018-03-11T05:33:30.281Z,12.3
2018-03-11T05:34:34.011Z,12.3
2018-03-11T05:35:37.400Z,12.3
2018-03-11T05:36:42.927Z,12.2
2018-03-11T05:37:47.053Z,12.2
2018-03-11T05:38:50.538Z,12.2
2018-03-11T05:39:54.058Z,12.2
2018-03-11T05:40:57.600Z,12
2018-03-11T05:42:02.135Z,12
2018-03-11T05:43:05.964Z,11.9
2018-03-11T05:44:10.830Z,11.9
2018-03-11T05:45:14.371Z,12
2018-03-11T05:46:19.615Z,12.5
2018-03-11T05:47:23.377Z,12.9
2018-03-11T05:48:27.165Z,12.8
2018-03-11T05:49:31.755Z,12.9
2018-03-11T05:50:36.016Z,12.9
2018-03-11T05:51:39.707Z,13.1
2018-03-11T05:52:44.155Z,13.1
2018-03-11T05:53:47.601Z,13
2018-03-11T05:54:52.008Z,13.1
2018-03-11T05:55:56.058Z,13.2
2018-03-11T05:56:59.817Z,13.1
2018-03-11T05:58:04.581Z,13.1
2018-03-11T05:59:09.390Z,13
2018-03-11T06:00:13.766Z,12.7
2018-03-11T06:01:18.215Z,12.7
2018-03-11T06:02:27.169Z,12.4
2018-03-11T06:06:10.398Z,12.5
2018-03-11T06:07:14.130Z,12.6
2018-03-11T06:08:18.851Z,12.9
2018-03-11T06:09:24.022Z,12.8
2018-03-11T06:10:29.282Z,12.9
2018-03-11T06:11:34.994Z,12.8
2018-03-11T06:12:39.502Z,13
2018-03-11T06:13:43.422Z,12.9
2018-03-11T06:14:51.702Z,12.8
2018-03-11T06:15:56.293Z,12.6
2018-03-11T06:17:02.183Z,12.7
2018-03-11T06:18:07.219Z,12.5
2018-03-11T06:19:11.670Z,12.7
2018-03-11T06:20:16.610Z,12.6
2018-03-11T06:21:20.726Z,12.5
2018-03-11T06:22:27.101Z,12.7
2018-03-11T06:23:32.239Z,12.9
2018-03-11T06:24:37.558Z,12.9
2018-03-11T06:25:41.950Z,12.9
2018-03-11T06:26:46.579Z,13
2018-03-11T06:27:52.548Z,12.8
2018-03-11T06:28:57.865Z,12.8
2018-03-11T06:30:03.574Z,12.8
2018-03-11T06:31:08.132Z,12.6
2018-03-11T06:32:13.620Z,12.5
2018-03-11T06:33:18.931Z,12.5
2018-03-11T06:34:24.729Z,12.6
2018-03-11T06:36:39.857Z,12.7
2018-03-11T06:37:45.109Z,12.7
2018-03-11T06:38:50.760Z,12.9
2018-03-11T06:39:56.326Z,13.1
2018-03-11T06:41:00.737Z,13.3
2018-03-11T06:42:06.284Z,13.4
2018-03-11T06:43:11.850Z,13.4
2018-03-11T06:44:18.315Z,13.3
2018-03-11T06:45:23.849Z,13.3
2018-03-11T06:46:30.818Z,13.2
2018-03-11T06:47:36.281Z,13.1
2018-03-11T06:48:41.282Z,13
2018-03-11T06:49:46.582Z,13.1
2018-03-11T06:50:52.512Z,13.1
2018-03-11T06:51:58.873Z,13.2
2018-03-11T06:53:05.619Z,13.3
2018-03-11T06:54:11.782Z,13.2
2018-03-11T06:55:18.332Z,13.4
2018-03-11T06:56:24.957Z,13.4
2018-03-11T06:57:30.801Z,13.5
2018-03-11T06:58:37.070Z,13.6
2018-03-11T06:59:42.983Z,13.7
2018-03-11T07:00:48.511Z,13.9
2018-03-11T07:01:54.414Z,13.9
2018-03-11T07:03:00.596Z,14.1
2018-03-11T07:04:07.187Z,14.3
2018-03-11T07:05:14.481Z,14.3
2018-03-11T07:06:20.900Z,14.5
2018-03-11T07:07:27.361Z,14.5
2018-03-11T07:08:33.071Z,14.6
2018-03-11T07:09:39.634Z,14.8
2018-03-11T07:10:46.159Z,14.9
2018-03-11T07:11:53.409Z,15
2018-03-11T07:13:01.435Z,15.2
2018-03-11T07:14:08.372Z,15.3
2018-03-11T07:15:15.246Z,15.4
2018-03-11T07:16:21.814Z,15.5
2018-03-11T07:17:28.624Z,15.7
2018-03-11T07:18:36.248Z,15.6
2018-03-11T07:19:42.512Z,15.9
2018-03-11T07:20:49.416Z,16.1
2018-03-11T07:21:56.368Z,16.1
2018-03-11T07:23:04.472Z,16.1
2018-03-11T07:24:11.448Z,16.2
2018-03-11T07:25:19.383Z,16.2
2018-03-11T07:26:26.426Z,16.2
2018-03-11T07:27:33.544Z,16.4
2018-03-11T07:28:41.506Z,16.5
2018-03-11T07:29:50.468Z,16.5
2018-03-11T07:30:57.335Z,16.5
2018-03-11T07:32:04.233Z,16.4
2018-03-11T07:33:12.674Z,16.6
2018-03-11T07:34:19.656Z,16.5
2018-03-11T07:35:26.629Z,16.5
2018-03-11T07:36:33.170Z,16.6
2018-03-11T07:37:41.345Z,16.5
2018-03-11T07:38:49.934Z,16.8
2018-03-11T07:39:57.871Z,16.8
2018-03-11T07:41:05.738Z,16.7
2018-03-11T07:42:12.544Z,16.9
2018-03-11T07:43:18.946Z,17
2018-03-11T07:44:25.388Z,17.1
2018-03-11T07:45:32.586Z,17.3
2018-03-11T07:46:41.583Z,17.2
2018-03-11T07:47:48.610Z,17.4
2018-03-11T07:48:55.556Z,17.4
2018-03-11T07:50:04.318Z,17.4
2018-03-11T07:51:12.300Z,17.7
2018-03-11T07:52:20.347Z,17.8
2018-03-11T07:53:28.072Z,17.6
2018-03-11T07:54:35.415Z,17.8
2018-03-11T07:55:44.551Z,17.8
2018-03-11T07:56:51.974Z,17.8
2018-03-11T07:57:59.376Z,17.9
2018-03-11T07:59:05.356Z,18.1
2018-03-11T08:00:14.222Z,18.2
2018-03-11T08:01:22.751Z,18.4
2018-03-11T08:02:29.317Z,18.5
2018-03-11T08:03:38.169Z,18.3
2018-03-11T08:04:45.963Z,18.5
2018-03-11T08:05:54.144Z,18.6
2018-03-11T08:07:01.402Z,18.8
2018-03-11T08:08:09.023Z,18.9
2018-03-11T08:09:16.607Z,18.8
2018-03-11T08:10:25.191Z,19
2018-03-11T08:11:33.140Z,18.7
2018-03-11T08:12:41.884Z,18.8
2018-03-11T08:13:49.172Z,18.9
2018-03-11T08:14:55.658Z,19.1
2018-03-11T08:16:06.461Z,19.2
2018-03-11T08:17:14.505Z,18.9
2018-03-11T08:19:36.119Z,19
2018-03-11T08:20:43.240Z,19
2018-03-11T08:21:49.251Z,18.9
2018-03-11T08:22:55.865Z,18.8
2018-03-11T08:24:02.927Z,18.9
2018-03-11T08:25:10.691Z,19.2
2018-03-11T08:26:15.765Z,19.2
2018-03-11T08:27:23.429Z,19
2018-03-11T08:28:31.646Z,19.1
2018-03-11T08:29:38.145Z,19.1
2018-03-11T08:30:44.633Z,19.4
2018-03-11T08:31:52.041Z,19.6
2018-03-11T08:33:00.529Z,19.7
2018-03-11T08:34:07.219Z,19.8
2018-03-11T08:35:15.065Z,19.8
2018-03-11T08:36:23.540Z,19.8
2018-03-11T08:37:31.565Z,19.9
2018-03-11T08:38:37.673Z,19.7
2018-03-11T08:39:46.368Z,19.8
2018-03-11T08:40:52.707Z,19.8
2018-03-11T08:41:59.578Z,19.7
2018-03-11T08:43:06.796Z,19.6
2018-03-11T08:44:16.668Z,19.7
2018-03-11T08:45:22.067Z,19.8
2018-03-11T08:46:31.277Z,19.9
2018-03-11T08:47:36.960Z,19.8
2018-03-11T08:48:42.554Z,19.9
2018-03-11T08:49:48.459Z,19.9
2018-03-11T08:50:53.594Z,19.8
2018-03-11T08:51:58.872Z,19.8
2018-03-11T08:53:04.160Z,19.7
2018-03-11T08:54:10.814Z,20
2018-03-11T08:55:16.940Z,20
2018-03-11T08:56:22.278Z,20.2
2018-03-11T08:57:27.825Z,20.2
2018-03-11T08:58:33.733Z,20.3
2018-03-11T08:59:39.187Z,20.3
2018-03-11T09:00:45.583Z,20.3
2018-03-11T09:01:51.139Z,20.1
2018-03-11T09:02:56.822Z,20.3
2018-03-11T09:04:02.635Z,20.4
2018-03-11T09:05:07.906Z,19.9
2018-03-11T09:06:14.029Z,20
2018-03-11T09:07:20.528Z,20.1
2018-03-11T09:08:27.604Z,20
2018-03-11T09:09:32.558Z,19.8
2018-03-11T09:10:38.194Z,20
2018-03-11T09:11:43.401Z,20.1
2018-03-11T09:12:49.400Z,20.3
2018-03-11T09:13:55.897Z,20.3
2018-03-11T09:15:01.303Z,20.4
2018-03-11T09:16:06.901Z,20.5
2018-03-11T09:17:11.915Z,20.4
2018-03-11T09:18:16.964Z,20.4
2018-03-11T09:19:23.733Z,20.4
2018-03-11T09:20:29.670Z,20.3
2018-03-11T09:21:35.969Z,20.4
2018-03-11T09:22:42.175Z,20.3
2018-03-11T09:23:47.483Z,20.2
2018-03-11T09:24:53.564Z,20.1
2018-03-11T09:25:59.484Z,20.2
2018-03-11T09:27:05.380Z,20.2
2018-03-11T09:28:12.181Z,20.2
2018-03-11T09:29:18.978Z,20.3
2018-03-11T09:30:24.022Z,20.2
2018-03-11T09:31:29.072Z,20.3
2018-03-11T09:32:34.283Z,20.1
2018-03-11T09:33:41.763Z,20.3
2018-03-11T09:34:48.311Z,20.3
2018-03-11T09:35:54.581Z,20.2
2018-03-11T09:37:01.207Z,20.2
2018-03-11T09:38:08.094Z,20
2018-03-11T09:39:13.776Z,20
2018-03-11T09:40:19.992Z,20
2018-03-11T09:41:25.767Z,20
2018-03-11T09:42:31.662Z,20
2018-03-11T09:43:36.660Z,20.1
2018-03-11T09:44:42.487Z,20
2018-03-11T09:45:48.982Z,20
2018-03-11T09:46:55.755Z,20.1
2018-03-11T09:48:01.474Z,20.2
2018-03-11T09:49:07.131Z,19.8
2018-03-11T09:50:13.964Z,20
2018-03-11T09:51:19.276Z,20
2018-03-11T09:52:25.966Z,20
2018-03-11T09:53:35.854Z,19.8
2018-03-11T09:54:42.305Z,20.1
2018-03-11T09:55:48.178Z,20.3
2018-03-11T09:56:54.820Z,20.5
2018-03-11T09:58:00.654Z,20.6
2018-03-11T09:59:06.093Z,20.7
2018-03-11T10:00:12.335Z,20.7
2018-03-11T10:01:19.538Z,20.8
2018-03-11T10:02:26.830Z,20.8
2018-03-11T10:03:33.977Z,20.9
2018-03-11T10:04:44.055Z,21
2018-03-11T10:05:50.787Z,20.9
2018-03-11T10:06:56.155Z,21.1
2018-03-11T10:08:03.948Z,21
2018-03-11T10:09:09.495Z,21
2018-03-11T10:10:17.650Z,21
2018-03-11T10:11:24.140Z,21
2018-03-11T10:12:32.256Z,21.1
2018-03-11T10:13:37.663Z,21.1
2018-03-11T10:14:47.898Z,21.1
2018-03-11T10:15:56.350Z,21.1
2018-03-11T10:17:01.516Z,21.1
2018-03-11T10:18:07.469Z,21.2
2018-03-11T10:19:13.544Z,21.2
2018-03-11T10:20:19.457Z,21.2
2018-03-11T10:21:24.189Z,21.2
2018-03-11T10:22:31.111Z,21.2
2018-03-11T10:23:37.283Z,21.3
2018-03-11T10:24:43.937Z,21.3
2018-03-11T10:25:50.006Z,21.4
2018-03-11T10:26:55.191Z,21.4
2018-03-11T10:28:00.388Z,21.4
2018-03-11T10:29:07.298Z,21.4
2018-03-11T10:30:12.919Z,21.3
2018-03-11T10:31:19.008Z,21.4
2018-03-11T10:32:24.238Z,21.5
2018-03-11T10:33:30.549Z,21.5
2018-03-11T10:34:35.546Z,21.5
2018-03-11T10:35:40.932Z,21.6
2018-03-11T10:36:45.949Z,21.6
2018-03-11T10:37:51.539Z,21.6
2018-03-11T10:38:56.716Z,21.7
2018-03-11T10:40:02.254Z,21.7
2018-03-11T10:41:08.300Z,21.7
2018-03-11T10:42:14.240Z,21.7
2018-03-11T10:43:19.567Z,21.7
2018-03-11T10:44:25.822Z,21.7
2018-03-11T10:45:31.514Z,21.7
2018-03-11T10:46:37.566Z,21.6
2018-03-11T10:47:43.845Z,21.6
2018-03-11T10:48:50.111Z,21.7
2018-03-11T10:49:57.662Z,21.6
2018-03-11T10:51:03.678Z,21.6
2018-03-11T10:52:08.680Z,21.6
2018-03-11T10:53:14.153Z,21.6
2018-03-11T10:54:20.397Z,21.7
2018-03-11T10:55:27.105Z,21.7
2018-03-11T10:56:34.855Z,21.7
2018-03-11T10:57:40.026Z,21.7
2018-03-11T10:58:44.850Z,21.7
2018-03-11T10:59:50.019Z,21.7
2018-03-11T11:00:55.184Z,21.7
2018-03-11T11:02:04.782Z,21.7
2018-03-11T11:03:10.783Z,21.7
2018-03-11T11:04:16.819Z,21.7
2018-03-11T11:05:22.829Z,21.8
2018-03-11T11:06:29.028Z,21.8
2018-03-11T11:07:35.853Z,21.8
2018-03-11T11:08:41.611Z,21.8
2018-03-11T11:09:46.952Z,21.8
2018-03-11T11:10:52.164Z,21.8
2018-03-11T11:11:57.113Z,21.8
2018-03-11T11:13:02.282Z,21.9
2018-03-11T11:14:09.491Z,21.8
2018-03-11T11:15:14.721Z,21.8
2018-03-11T11:16:19.743Z,21.9
2018-03-11T11:17:25.355Z,21.9
2018-03-11T11:18:31.356Z,21.9
2018-03-11T11:19:36.725Z,21.9
2018-03-11T11:20:41.673Z,21.9
2018-03-11T11:21:46.831Z,22
2018-03-11T11:22:52.621Z,22
2018-03-11T11:23:59.190Z,22
2018-03-11T11:25:05.336Z,21.9
2018-03-11T11:26:10.641Z,21.9
2018-03-11T11:28:26.595Z,21.8
2018-03-11T11:29:33.201Z,22
2018-03-11T11:30:39.514Z,21.9
2018-03-11T11:31:44.907Z,21.9
2018-03-11T11:32:50.504Z,21.9
2018-03-11T11:33:56.196Z,21.9
2018-03-11T11:35:03.071Z,21.9
2018-03-11T11:36:08.920Z,21.9
2018-03-11T11:37:14.677Z,21.9
2018-03-11T11:38:20.691Z,21.9
2018-03-11T11:39:25.673Z,21.9
2018-03-11T11:40:31.078Z,21.9
2018-03-11T11:41:36.748Z,21.9
2018-03-11T11:42:41.595Z,21.8
2018-03-11T11:43:46.872Z,21.9
2018-03-11T11:44:52.296Z,21.9
2018-03-11T11:45:57.690Z,21.9
2018-03-11T11:47:03.791Z,21.9
2018-03-11T11:48:08.976Z,21.9
2018-03-11T11:49:13.984Z,21.9
2018-03-11T11:50:19.615Z,21.9
2018-03-11T11:51:25.279Z,21.9
2018-03-11T11:52:30.942Z,22
2018-03-11T11:53:36.324Z,22
2018-03-11T11:54:41.130Z,21.9
2018-03-11T11:55:46.349Z,22
2018-03-11T11:56:51.880Z,22
2018-03-11T11:57:57.794Z,22
2018-03-11T11:59:03.470Z,22
2018-03-11T12:00:08.742Z,22
2018-03-11T12:01:14.244Z,22
2018-03-11T12:02:19.533Z,22
2018-03-11T12:03:24.999Z,22
2018-03-11T12:04:29.959Z,22
2018-03-11T12:05:36.436Z,22
2018-03-11T12:06:42.199Z,22.1
2018-03-11T12:07:49.716Z,22.1
2018-03-11T12:08:55.228Z,22
2018-03-11T12:10:00.020Z,22
2018-03-11T12:11:06.096Z,22
2018-03-11T12:12:11.387Z,22.1
2018-03-11T12:13:16.493Z,22
2018-03-11T12:14:21.861Z,22
2018-03-11T12:15:27.228Z,22
2018-03-11T12:16:33.004Z,22.1
2018-03-11T12:17:38.388Z,22.1
2018-03-11T12:18:44.363Z,22.1
2018-03-11T12:19:49.864Z,22.1
2018-03-11T12:20:54.919Z,22.1
2018-03-11T12:22:00.615Z,22.1
2018-03-11T12:23:06.686Z,22.1
2018-03-11T12:24:11.770Z,22.1
2018-03-11T12:25:18.202Z,22.2
2018-03-11T12:26:24.049Z,22.2
2018-03-11T12:27:29.913Z,22.2
2018-03-11T12:28:34.999Z,22.2
2018-03-11T12:29:40.821Z,22.2
2018-03-11T12:30:47.200Z,22.2
2018-03-11T12:31:52.781Z,22.2
2018-03-11T12:32:58.054Z,22.2
2018-03-11T12:34:03.340Z,22.2
2018-03-11T12:35:09.708Z,22.2
2018-03-11T12:36:15.125Z,22.1
2018-03-11T12:37:20.323Z,22.2
2018-03-11T12:38:25.342Z,22.2
2018-03-11T12:39:31.612Z,22.2
2018-03-11T12:40:36.298Z,22.2
2018-03-11T12:41:41.385Z,22.1
2018-03-11T12:42:50.676Z,22.2
2018-03-11T12:43:56.306Z,22.2
2018-03-11T12:45:02.455Z,22.2
2018-03-11T12:46:07.342Z,22.2
2018-03-11T12:47:12.837Z,22.2
2018-03-11T12:48:18.223Z,22.2
2018-03-11T12:49:23.080Z,22.3
2018-03-11T12:50:28.586Z,22.1
2018-03-11T12:51:35.376Z,22.3
2018-03-11T12:52:41.883Z,22.3
2018-03-11T12:53:47.547Z,22.2
2018-03-11T12:54:52.921Z,22.3
2018-03-11T12:55:58.946Z,22.3
2018-03-11T12:57:04.107Z,22.3
2018-03-11T12:58:08.747Z,22.3
2018-03-11T12:59:13.543Z,22.3
2018-03-11T13:00:18.214Z,22.3
2018-03-11T13:01:22.814Z,22.3
2018-03-11T13:02:27.378Z,22.3
2018-03-11T13:03:31.857Z,22.3
2018-03-11T13:04:35.909Z,22.3
2018-03-11T13:05:39.936Z,22.3
2018-03-11T13:06:43.920Z,22.3
2018-03-11T13:07:51.814Z,22.3
2018-03-11T13:08:56.617Z,22.3
2018-03-11T13:10:03.118Z,22.3
2018-03-11T13:11:07.619Z,22.2
2018-03-11T13:12:12.189Z,22.4
2018-03-11T13:13:16.831Z,22.4
2018-03-11T13:14:21.525Z,22.4
2018-03-11T13:15:26.372Z,22.3
2018-03-11T13:16:30.948Z,22.4
2018-03-11T13:17:38.154Z,22.4
2018-03-11T13:18:43.494Z,22.4
2018-03-11T13:19:48.569Z,22.4
2018-03-11T13:20:53.316Z,22.4
2018-03-11T13:21:58.061Z,22.4
2018-03-11T13:23:02.773Z,22.4
2018-03-11T13:24:07.692Z,22.4
2018-03-11T13:25:11.385Z,22.5
2018-03-11T13:26:15.655Z,22.4
2018-03-11T13:27:20.535Z,22.5
2018-03-11T13:28:24.974Z,22.4
2018-03-11T13:29:29.455Z,22.4
2018-03-11T13:30:33.782Z,22.4
2018-03-11T13:31:38.228Z,22.3
2018-03-11T13:32:46.329Z,22.5
2018-03-11T13:33:52.051Z,22.5
2018-03-11T13:34:57.041Z,22.5
2018-03-11T13:36:01.773Z,22.5
2018-03-11T13:37:06.928Z,22.5
2018-03-11T13:38:11.445Z,22.5
2018-03-11T13:39:16.336Z,22.5
2018-03-11T13:40:21.053Z,22.5
2018-03-11T13:41:25.952Z,22.5
2018-03-11T13:42:30.820Z,22.4
2018-03-11T13:43:35.835Z,22.5
2018-03-11T13:44:44.943Z,22.5
2018-03-11T13:45:50.570Z,22.5
2018-03-11T13:46:55.016Z,22.5
2018-03-11T13:47:59.955Z,22.5
2018-03-11T13:49:04.383Z,22.5
2018-03-11T13:50:09.304Z,22.5
2018-03-11T13:51:14.904Z,22.5
2018-03-11T13:52:19.046Z,22.5
2018-03-11T13:53:23.505Z,22.5
2018-03-11T13:54:31.428Z,22.5
2018-03-11T13:55:36.216Z,22.6
2018-03-11T13:56:41.851Z,22.6
2018-03-11T13:57:47.362Z,22.6
2018-03-11T13:58:52.592Z,22.6
2018-03-11T13:59:57.803Z,22.6
2018-03-11T14:01:03.354Z,22.6
2018-03-11T14:02:08.875Z,22.6
2018-03-11T14:03:15.103Z,22.6
2018-03-11T14:04:20.492Z,22.6
2018-03-11T14:05:25.789Z,22.6
2018-03-11T14:06:37.816Z,22.5
2018-03-11T14:07:43.898Z,22.6
2018-03-11T14:08:48.794Z,22.5
2018-03-11T14:09:54.440Z,22.6
2018-03-11T14:11:00.297Z,22.6
2018-03-11T14:12:06.660Z,22.6
2018-03-11T14:13:13.320Z,22.6
2018-03-11T14:14:18.534Z,22.6
2018-03-11T14:15:23.655Z,22.6
2018-03-11T14:16:28.899Z,22.6
2018-03-11T14:17:35.849Z,22.5
2018-03-11T14:18:41.578Z,22.5
2018-03-11T14:19:48.031Z,22.6
2018-03-11T14:20:52.994Z,22.6
2018-03-11T14:21:58.436Z,22.6
2018-03-11T14:23:03.762Z,22.6
2018-03-11T14:24:10.003Z,22.6
2018-03-11T14:25:18.107Z,22.6
2018-03-11T14:26:23.157Z,22.5
2018-03-11T14:27:28.163Z,22.6
2018-03-11T14:28:33.946Z,22.6
2018-03-11T14:29:39.250Z,22.5
2018-03-11T14:30:44.888Z,22.5
2018-03-11T14:31:50.223Z,22.5
2018-03-11T14:32:56.199Z,22.5
2018-03-11T14:34:02.062Z,22.5
2018-03-11T14:35:09.386Z,22.5
2018-03-11T14:36:18.679Z,22.5
2018-03-11T14:37:24.438Z,22.5
2018-03-11T14:38:30.295Z,22.5
2018-03-11T14:39:35.770Z,22.5
2018-03-11T14:40:41.736Z,22.5
2018-03-11T14:41:47.909Z,22.5
2018-03-11T14:42:53.083Z,22.5
2018-03-11T14:43:58.410Z,22.5
2018-03-11T14:45:03.792Z,22.5
2018-03-11T14:46:09.008Z,22.5
2018-03-11T14:47:14.781Z,22.6
2018-03-11T14:48:20.514Z,22.5
2018-03-11T14:49:25.868Z,22.5
2018-03-11T14:50:30.675Z,22.5
2018-03-11T14:51:35.766Z,22.5
2018-03-11T14:52:41.258Z,22.5
2018-03-11T14:53:46.654Z,22.5
2018-03-11T14:54:51.862Z,22.4
2018-03-11T14:55:57.448Z,22.5